sensor_id;sensor_type;location;lat;lon;timestamp;temperature;humidity
33811;DHT22;20119;48.334;16.206;2022-11-20T00:30:10;0.90;99.90
33811;DHT22;20119;48.334;16.206;2022-11-20T00:35:21;0.80;99.90
33811;DHT22;20119;48.334;16.206;2022-11-20T00:40:23;0.90;99.90
33811;DHT22;20119;48.334;16.206;2022-11-20T00:48:02;1.00;99.90
33811;DHT22;20119;48.334;16.206;2022-11-20T00:50:29;1.00;99.90
33811;DHT22;20119;48.334;16.206;2022-11-20T00:52:56;1.00;99.90
33811;DHT22;20119;48.334;16.206;2022-11-20T00:55:23;1.10;99.90
33811;DHT22;20119;48.334;16.206;2022-11-20T01:00:25;1.00;99.90
33811;DHT22;20119;48.334;16.206;2022-11-20T01:05:33;1.00;99.90
33811;DHT22;20119;48.334;16.206;2022-11-20T01:13:11;0.90;99.90
33811;DHT22;20119;48.334;16.206;2022-11-20T01:18:31;0.90;99.90
33811;DHT22;20119;48.334;16.206;2022-11-20T01:21:02;0.90;99.90
33811;DHT22;20119;48.334;16.206;2022-11-20T01:23:33;0.90;99.90
33811;DHT22;20119;48.334;16.206;2022-11-20T02:25:35;0.70;99.90
33811;DHT22;20119;48.334;16.206;2022-11-20T02:28:04;0.70;99.90
33811;DHT22;20119;48.334;16.206;2022-11-20T02:30:31;0.80;99.90
33811;DHT22;20119;48.334;16.206;2022-11-20T02:32:58;0.90;99.90
33811;DHT22;20119;48.334;16.206;2022-11-20T02:53:29;0.90;99.90
33811;DHT22;20119;48.334;16.206;2022-11-20T02:55:56;0.90;99.90
33811;DHT22;20119;48.334;16.206;2022-11-20T02:58:23;0.90;99.90
33811;DHT22;20119;48.334;16.206;2022-11-20T03:00:51;0.80;99.90
33811;DHT22;20119;48.334;16.206;2022-11-20T03:03:18;0.90;99.90
33811;DHT22;20119;48.334;16.206;2022-11-20T03:05:45;1.00;99.90
33811;DHT22;20119;48.334;16.206;2022-11-20T03:08:12;1.00;99.90
33811;DHT22;20119;48.334;16.206;2022-11-20T03:10:41;1.00;99.90
33811;DHT22;20119;48.334;16.206;2022-11-20T03:13:07;1.00;99.90
33811;DHT22;20119;48.334;16.206;2022-11-20T03:15:36;1.00;99.90
33811;DHT22;20119;48.334;16.206;2022-11-20T03:18:03;1.00;99.90
33811;DHT22;20119;48.334;16.206;2022-11-20T03:20:32;1.00;99.90
33811;DHT22;20119;48.334;16.206;2022-11-20T03:22:59;1.00;99.90
33811;DHT22;20119;48.334;16.206;2022-11-20T03:25:26;1.00;99.90
33811;DHT22;20119;48.334;16.206;2022-11-20T03:27:55;0.90;99.90
33811;DHT22;20119;48.334;16.206;2022-11-20T03:30:22;1.00;99.90
33811;DHT22;20119;48.334;16.206;2022-11-20T03:32:52;0.90;99.90
33811;DHT22;20119;48.334;16.206;2022-11-20T03:35:20;0.80;99.90
33811;DHT22;20119;48.334;16.206;2022-11-20T03:55:55;0.80;99.90
33811;DHT22;20119;48.334;16.206;2022-11-20T03:58:22;0.80;99.90
33811;DHT22;20119;48.334;16.206;2022-11-20T04:00:49;0.70;99.90
33811;DHT22;20119;48.334;16.206;2022-11-20T04:03:16;0.70;99.90
33811;DHT22;20119;48.334;16.206;2022-11-20T04:05:43;0.70;99.90
33811;DHT22;20119;48.334;16.206;2022-11-20T04:08:10;0.70;99.90
33811;DHT22;20119;48.334;16.206;2022-11-20T04:10:37;0.70;99.90
33811;DHT22;20119;48.334;16.206;2022-11-20T04:13:05;0.60;99.90
33811;DHT22;20119;48.334;16.206;2022-11-20T04:15:32;0.70;99.90
33811;DHT22;20119;48.334;16.206;2022-11-20T04:17:59;0.70;99.90
33811;DHT22;20119;48.334;16.206;2022-11-20T04:20:26;0.90;99.90
33811;DHT22;20119;48.334;16.206;2022-11-20T04:22:53;0.70;99.90
33811;DHT22;20119;48.334;16.206;2022-11-20T04:25:21;0.70;99.90
33811;DHT22;20119;48.334;16.206;2022-11-20T04:27:47;0.70;99.90
33811;DHT22;20119;48.334;16.206;2022-11-20T04:30:16;0.70;99.90
33811;DHT22;20119;48.334;16.206;2022-11-20T04:32:43;0.80;99.90
33811;DHT22;20119;48.334;16.206;2022-11-20T04:35:10;0.80;99.90
33811;DHT22;20119;48.334;16.206;2022-11-20T04:37:37;0.80;99.90
33811;DHT22;20119;48.334;16.206;2022-11-20T04:40:05;0.90;99.90
33811;DHT22;20119;48.334;16.206;2022-11-20T04:42:31;0.80;99.90
33811;DHT22;20119;48.334;16.206;2022-11-20T04:44:59;0.80;99.90
33811;DHT22;20119;48.334;16.206;2022-11-20T04:47:27;0.90;99.90
33811;DHT22;20119;48.334;16.206;2022-11-20T04:49:54;0.80;99.90
33811;DHT22;20119;48.334;16.206;2022-11-20T04:52:21;0.80;99.90
33811;DHT22;20119;48.334;16.206;2022-11-20T04:57:23;0.70;99.90
33811;DHT22;20119;48.334;16.206;2022-11-20T05:02:25;0.80;99.90
33811;DHT22;20119;48.334;16.206;2022-11-20T05:04:53;0.70;99.90
33811;DHT22;20119;48.334;16.206;2022-11-20T05:12:31;0.60;99.90
33811;DHT22;20119;48.334;16.206;2022-11-20T05:25:21;0.60;99.90
33811;DHT22;20119;48.334;16.206;2022-11-20T05:30:23;0.60;99.90
33811;DHT22;20119;48.334;16.206;2022-11-20T05:35:25;0.60;99.90
33811;DHT22;20119;48.334;16.206;2022-11-20T05:37:52;0.60;99.90
33811;DHT22;20119;48.334;16.206;2022-11-20T05:40:20;0.50;99.90
33811;DHT22;20119;48.334;16.206;2022-11-20T05:42:47;0.60;99.90
33811;DHT22;20119;48.334;16.206;2022-11-20T05:45:14;0.60;99.90
33811;DHT22;20119;48.334;16.206;2022-11-20T05:50:17;0.60;99.90
33811;DHT22;20119;48.334;16.206;2022-11-20T05:57:55;0.60;99.90
33811;DHT22;20119;48.334;16.206;2022-11-20T06:00:22;0.60;99.90
33811;DHT22;20119;48.334;16.206;2022-11-20T06:02:49;0.60;99.90
33811;DHT22;20119;48.334;16.206;2022-11-20T06:10:20;0.50;99.90
33811;DHT22;20119;48.334;16.206;2022-11-20T06:12:47;0.50;99.90
33811;DHT22;20119;48.334;16.206;2022-11-20T06:17:52;0.50;99.90
33811;DHT22;20119;48.334;16.206;2022-11-20T06:20:18;0.60;99.90
33811;DHT22;20119;48.334;16.206;2022-11-20T06:27:48;0.70;99.90
33811;DHT22;20119;48.334;16.206;2022-11-20T06:35:21;0.70;99.90
33811;DHT22;20119;48.334;16.206;2022-11-20T06:37:47;0.70;99.90
33811;DHT22;20119;48.334;16.206;2022-11-20T06:40:14;0.60;99.90
33811;DHT22;20119;48.334;16.206;2022-11-20T06:42:41;0.60;99.90
33811;DHT22;20119;48.334;16.206;2022-11-20T07:00:45;0.70;99.90
33811;DHT22;20119;48.334;16.206;2022-11-20T07:03:12;0.70;99.90
33811;DHT22;20119;48.334;16.206;2022-11-20T07:05:39;0.70;99.90
33811;DHT22;20119;48.334;16.206;2022-11-20T07:08:06;0.60;99.90
33811;DHT22;20119;48.334;16.206;2022-11-20T07:13:10;0.90;99.90
33811;DHT22;20119;48.334;16.206;2022-11-20T07:20:48;1.00;99.90
33811;DHT22;20119;48.334;16.206;2022-11-20T07:23:15;1.00;99.90
33811;DHT22;20119;48.334;16.206;2022-11-20T07:33:23;0.90;99.90
33811;DHT22;20119;48.334;16.206;2022-11-20T07:46:10;0.90;99.90
33811;DHT22;20119;48.334;16.206;2022-11-20T07:48:39;0.90;99.90
33811;DHT22;20119;48.334;16.206;2022-11-20T07:51:06;1.00;99.90
33811;DHT22;20119;48.334;16.206;2022-11-20T07:56:08;1.10;99.90
33811;DHT22;20119;48.334;16.206;2022-11-20T07:58:35;1.00;99.90
33811;DHT22;20119;48.334;16.206;2022-11-20T08:01:03;1.00;99.90
33811;DHT22;20119;48.334;16.206;2022-11-20T08:08:34;1.10;99.90
33811;DHT22;20119;48.334;16.206;2022-11-20T08:16:25;1.30;99.90
33811;DHT22;20119;48.334;16.206;2022-11-20T08:18:52;1.50;99.90
33811;DHT22;20119;48.334;16.206;2022-11-20T08:23:57;1.70;99.90
33811;DHT22;20119;48.334;16.206;2022-11-20T08:26:24;1.80;99.90
33811;DHT22;20119;48.334;16.206;2022-11-20T08:28:53;1.80;99.90
33811;DHT22;20119;48.334;16.206;2022-11-20T08:36:33;2.20;99.90
33811;DHT22;20119;48.334;16.206;2022-11-20T08:41:37;2.00;99.90
33811;DHT22;20119;48.334;16.206;2022-11-20T08:54:25;2.10;99.90
33811;DHT22;20119;48.334;16.206;2022-11-20T08:59:30;1.90;99.90
33811;DHT22;20119;48.334;16.206;2022-11-20T09:01:57;1.90;99.90
33811;DHT22;20119;48.334;16.206;2022-11-20T09:04:24;1.80;99.90
33811;DHT22;20119;48.334;16.206;2022-11-20T09:09:27;1.80;99.90
33811;DHT22;20119;48.334;16.206;2022-11-20T09:11:53;1.90;99.90
33811;DHT22;20119;48.334;16.206;2022-11-20T09:14:20;1.90;99.90
33811;DHT22;20119;48.334;16.206;2022-11-20T09:16:51;1.90;99.90
33811;DHT22;20119;48.334;16.206;2022-11-20T09:19:18;1.70;99.90
33811;DHT22;20119;48.334;16.206;2022-11-20T09:24:20;1.60;99.90
33811;DHT22;20119;48.334;16.206;2022-11-20T09:26:47;1.70;99.90
33811;DHT22;20119;48.334;16.206;2022-11-20T09:29:14;1.70;99.90
33811;DHT22;20119;48.334;16.206;2022-11-20T09:31:41;1.80;99.90
33811;DHT22;20119;48.334;16.206;2022-11-20T09:39:20;2.00;99.90
33811;DHT22;20119;48.334;16.206;2022-11-20T09:42:02;2.00;99.90
33811;DHT22;20119;48.334;16.206;2022-11-20T09:44:51;2.00;99.90
33811;DHT22;20119;48.334;16.206;2022-11-20T09:47:30;2.10;99.90
33811;DHT22;20119;48.334;16.206;2022-11-20T09:50:12;2.10;99.90
33811;DHT22;20119;48.334;16.206;2022-11-20T09:52:49;2.30;99.90
33811;DHT22;20119;48.334;16.206;2022-11-20T09:55:23;2.50;99.90
33811;DHT22;20119;48.334;16.206;2022-11-20T09:57:52;2.50;99.90
33811;DHT22;20119;48.334;16.206;2022-11-20T10:00:19;2.80;99.90
33811;DHT22;20119;48.334;16.206;2022-11-20T10:02:50;2.90;99.90
33811;DHT22;20119;48.334;16.206;2022-11-20T10:05:24;2.90;99.90
33811;DHT22;20119;48.334;16.206;2022-11-20T10:10:42;3.00;99.90
33811;DHT22;20119;48.334;16.206;2022-11-20T10:13:27;3.20;99.90
33811;DHT22;20119;48.334;16.206;2022-11-20T10:16:08;3.40;99.90
33811;DHT22;20119;48.334;16.206;2022-11-20T10:18:44;3.50;99.90
33811;DHT22;20119;48.334;16.206;2022-11-20T10:21:23;3.30;99.90
33811;DHT22;20119;48.334;16.206;2022-11-20T10:27:00;3.00;99.90
33811;DHT22;20119;48.334;16.206;2022-11-20T10:29:32;2.90;99.90
33811;DHT22;20119;48.334;16.206;2022-11-20T10:34:46;3.10;99.90
33811;DHT22;20119;48.334;16.206;2022-11-20T10:39:54;3.20;99.90
33811;DHT22;20119;48.334;16.206;2022-11-20T10:42:30;3.30;99.90
33811;DHT22;20119;48.334;16.206;2022-11-20T10:45:02;3.20;99.90
33811;DHT22;20119;48.334;16.206;2022-11-20T10:52:50;3.40;99.90
33811;DHT22;20119;48.334;16.206;2022-11-20T10:55:27;3.80;99.90
33811;DHT22;20119;48.334;16.206;2022-11-20T10:58:03;3.70;99.90
33811;DHT22;20119;48.334;16.206;2022-11-20T11:00:32;3.60;99.90
33811;DHT22;20119;48.334;16.206;2022-11-20T11:10:49;3.80;99.90
33811;DHT22;20119;48.334;16.206;2022-11-20T11:21:05;4.40;99.90
33811;DHT22;20119;48.334;16.206;2022-11-20T11:23:34;4.50;99.90
33811;DHT22;20119;48.334;16.206;2022-11-20T11:31:22;4.50;99.90
33811;DHT22;20119;48.334;16.206;2022-11-20T11:33:50;4.40;99.90
33811;DHT22;20119;48.334;16.206;2022-11-20T11:36:21;4.40;99.90
33811;DHT22;20119;48.334;16.206;2022-11-20T11:38:51;4.20;99.90
33811;DHT22;20119;48.334;16.206;2022-11-20T11:41:20;4.20;99.90
33811;DHT22;20119;48.334;16.206;2022-11-20T11:43:52;4.10;99.90
33811;DHT22;20119;48.334;16.206;2022-11-20T11:46:37;4.20;99.90
33811;DHT22;20119;48.334;16.206;2022-11-20T11:49:16;4.60;99.90
33811;DHT22;20119;48.334;16.206;2022-11-20T11:51:58;4.80;99.90
33811;DHT22;20119;48.334;16.206;2022-11-20T11:54:30;4.90;99.90
33811;DHT22;20119;48.334;16.206;2022-11-20T11:57:00;5.20;99.90
33811;DHT22;20119;48.334;16.206;2022-11-20T11:59:37;5.20;99.90
33811;DHT22;20119;48.334;16.206;2022-11-20T12:02:22;5.40;99.90
33811;DHT22;20119;48.334;16.206;2022-11-20T12:04:54;5.50;99.90
33811;DHT22;20119;48.334;16.206;2022-11-20T12:07:35;5.60;99.90
33811;DHT22;20119;48.334;16.206;2022-11-20T12:10:08;5.80;99.90
33811;DHT22;20119;48.334;16.206;2022-11-20T12:15:23;5.50;99.90
33811;DHT22;20119;48.334;16.206;2022-11-20T12:20:32;6.40;99.90
33811;DHT22;20119;48.334;16.206;2022-11-20T12:25:43;6.50;99.90
33811;DHT22;20119;48.334;16.206;2022-11-20T12:30:54;6.00;99.90
33811;DHT22;20119;48.334;16.206;2022-11-20T12:33:40;5.70;99.90
33811;DHT22;20119;48.334;16.206;2022-11-20T12:41:31;5.80;99.90
33811;DHT22;20119;48.334;16.206;2022-11-20T12:44:33;5.70;99.90
33811;DHT22;20119;48.334;16.206;2022-11-20T12:47:26;5.70;99.90
33811;DHT22;20119;48.334;16.206;2022-11-20T12:52:41;5.50;99.90
33811;DHT22;20119;48.334;16.206;2022-11-20T12:55:28;5.50;99.90
33811;DHT22;20119;48.334;16.206;2022-11-20T12:58:02;5.60;99.90
33811;DHT22;20119;48.334;16.206;2022-11-20T13:00:31;5.70;99.90
33811;DHT22;20119;48.334;16.206;2022-11-20T13:05:58;5.80;99.90
33811;DHT22;20119;48.334;16.206;2022-11-20T13:08:29;5.70;99.90
33811;DHT22;20119;48.334;16.206;2022-11-20T13:11:03;5.80;99.90
33811;DHT22;20119;48.334;16.206;2022-11-20T13:14:02;6.00;99.90
33811;DHT22;20119;48.334;16.206;2022-11-20T13:16:36;5.90;99.90
33811;DHT22;20119;48.334;16.206;2022-11-20T13:19:05;6.10;99.90
33811;DHT22;20119;48.334;16.206;2022-11-20T13:21:37;6.20;99.90
33811;DHT22;20119;48.334;16.206;2022-11-20T13:24:04;6.40;99.90
33811;DHT22;20119;48.334;16.206;2022-11-20T13:29:11;6.30;99.90
33811;DHT22;20119;48.334;16.206;2022-11-20T13:31:43;6.20;99.90
33811;DHT22;20119;48.334;16.206;2022-11-20T13:39:24;6.40;99.90
33811;DHT22;20119;48.334;16.206;2022-11-20T13:41:53;6.50;99.90
33811;DHT22;20119;48.334;16.206;2022-11-20T13:44:25;6.40;99.90
33811;DHT22;20119;48.334;16.206;2022-11-20T13:46:53;6.30;99.90
33811;DHT22;20119;48.334;16.206;2022-11-20T13:49:25;6.50;99.90
33811;DHT22;20119;48.334;16.206;2022-11-20T13:54:48;6.50;99.90
33811;DHT22;20119;48.334;16.206;2022-11-20T13:59:58;6.40;99.90
33811;DHT22;20119;48.334;16.206;2022-11-20T14:02:29;6.50;99.90
33811;DHT22;20119;48.334;16.206;2022-11-20T14:04:58;6.50;99.90
33811;DHT22;20119;48.334;16.206;2022-11-20T14:07:34;6.50;99.90
33811;DHT22;20119;48.334;16.206;2022-11-20T14:10:02;6.40;99.90
33811;DHT22;20119;48.334;16.206;2022-11-20T14:12:31;6.40;99.90
33811;DHT22;20119;48.334;16.206;2022-11-20T14:15:00;6.40;99.90
33811;DHT22;20119;48.334;16.206;2022-11-20T14:17:31;6.30;99.90
33811;DHT22;20119;48.334;16.206;2022-11-20T14:19:58;6.50;99.90
33811;DHT22;20119;48.334;16.206;2022-11-20T14:22:27;6.50;99.90
33811;DHT22;20119;48.334;16.206;2022-11-20T14:25:03;6.50;99.90
33811;DHT22;20119;48.334;16.206;2022-11-20T14:27:34;6.40;99.90
33811;DHT22;20119;48.334;16.206;2022-11-20T14:30:05;6.30;99.90
33811;DHT22;20119;48.334;16.206;2022-11-20T14:32:35;6.30;99.90
33811;DHT22;20119;48.334;16.206;2022-11-20T14:37:39;6.00;99.90
33811;DHT22;20119;48.334;16.206;2022-11-20T14:42:43;5.80;99.90
33811;DHT22;20119;48.334;16.206;2022-11-20T14:45:12;5.70;99.90
33811;DHT22;20119;48.334;16.206;2022-11-20T14:47:40;5.50;99.90
33811;DHT22;20119;48.334;16.206;2022-11-20T14:52:50;5.40;99.90
33811;DHT22;20119;48.334;16.206;2022-11-20T14:55:26;5.30;99.90
33811;DHT22;20119;48.334;16.206;2022-11-20T15:03:15;5.20;99.90
33811;DHT22;20119;48.334;16.206;2022-11-20T15:08:18;5.10;99.90
33811;DHT22;20119;48.334;16.206;2022-11-20T15:10:47;5.00;99.90
33811;DHT22;20119;48.334;16.206;2022-11-20T15:18:31;4.90;99.90
33811;DHT22;20119;48.334;16.206;2022-11-20T15:21:01;4.70;99.90
33811;DHT22;20119;48.334;16.206;2022-11-20T15:23:29;4.60;99.90
33811;DHT22;20119;48.334;16.206;2022-11-20T15:25:56;4.50;99.90
33811;DHT22;20119;48.334;16.206;2022-11-20T15:30:55;4.20;99.90
33811;DHT22;20119;48.334;16.206;2022-11-20T15:33:22;4.00;99.90
33811;DHT22;20119;48.334;16.206;2022-11-20T15:36:09;4.00;99.90
33811;DHT22;20119;48.334;16.206;2022-11-20T15:41:12;3.80;99.90
33811;DHT22;20119;48.334;16.206;2022-11-20T15:43:38;3.70;99.90
33811;DHT22;20119;48.334;16.206;2022-11-20T15:48:36;3.60;99.90
33811;DHT22;20119;48.334;16.206;2022-11-20T15:51:21;3.50;99.90
33811;DHT22;20119;48.334;16.206;2022-11-20T15:56:21;3.30;99.90
33811;DHT22;20119;48.334;16.206;2022-11-20T15:58:48;3.20;99.90
33811;DHT22;20119;48.334;16.206;2022-11-20T16:01:17;3.20;99.90
33811;DHT22;20119;48.334;16.206;2022-11-20T16:03:44;3.30;99.90
33811;DHT22;20119;48.334;16.206;2022-11-20T16:06:12;3.30;99.90
33811;DHT22;20119;48.334;16.206;2022-11-20T16:08:41;3.30;99.90
33811;DHT22;20119;48.334;16.206;2022-11-20T16:11:10;3.30;99.90
33811;DHT22;20119;48.334;16.206;2022-11-20T16:13:38;3.40;99.90
33811;DHT22;20119;48.334;16.206;2022-11-20T16:16:37;3.40;99.90
33811;DHT22;20119;48.334;16.206;2022-11-20T16:27:26;3.40;99.90
33811;DHT22;20119;48.334;16.206;2022-11-20T16:29:53;3.50;99.90
33811;DHT22;20119;48.334;16.206;2022-11-20T16:34:56;3.60;99.90
33811;DHT22;20119;48.334;16.206;2022-11-20T16:37:22;3.60;99.90
33811;DHT22;20119;48.334;16.206;2022-11-20T16:39:51;3.60;99.90
33811;DHT22;20119;48.334;16.206;2022-11-20T16:42:17;3.60;99.90
33811;DHT22;20119;48.334;16.206;2022-11-20T16:44:45;3.60;99.90
33811;DHT22;20119;48.334;16.206;2022-11-20T16:47:12;3.50;99.90
33811;DHT22;20119;48.334;16.206;2022-11-20T16:49:39;3.40;99.90
33811;DHT22;20119;48.334;16.206;2022-11-20T16:54:41;3.30;99.90
33811;DHT22;20119;48.334;16.206;2022-11-20T16:59:45;3.30;99.90
33811;DHT22;20119;48.334;16.206;2022-11-20T17:02:12;3.30;99.90
33811;DHT22;20119;48.334;16.206;2022-11-20T17:04:39;3.30;99.90
33811;DHT22;20119;48.334;16.206;2022-11-20T17:07:06;3.40;99.90
33811;DHT22;20119;48.334;16.206;2022-11-20T17:12:08;3.50;99.90
33811;DHT22;20119;48.334;16.206;2022-11-20T17:14:36;3.50;99.90
33811;DHT22;20119;48.334;16.206;2022-11-20T17:17:04;3.60;99.90
33811;DHT22;20119;48.334;16.206;2022-11-20T17:19:31;3.60;99.90
33811;DHT22;20119;48.334;16.206;2022-11-20T17:21:58;3.70;99.90
33811;DHT22;20119;48.334;16.206;2022-11-20T17:32:12;3.60;99.90
33811;DHT22;20119;48.334;16.206;2022-11-20T17:34:39;3.50;99.90
33811;DHT22;20119;48.334;16.206;2022-11-20T17:37:06;3.50;99.90
33811;DHT22;20119;48.334;16.206;2022-11-20T17:39:33;3.50;99.90
33811;DHT22;20119;48.334;16.206;2022-11-20T17:42:00;3.50;99.90
33811;DHT22;20119;48.334;16.206;2022-11-20T17:44:44;3.60;99.90
33811;DHT22;20119;48.334;16.206;2022-11-20T17:47:13;3.60;99.90
33811;DHT22;20119;48.334;16.206;2022-11-20T17:49:40;3.60;99.90
33811;DHT22;20119;48.334;16.206;2022-11-20T17:54:43;3.60;99.90
33811;DHT22;20119;48.334;16.206;2022-11-20T17:59:45;3.60;99.90
33811;DHT22;20119;48.334;16.206;2022-11-20T18:02:13;3.70;99.90
33811;DHT22;20119;48.334;16.206;2022-11-20T18:04:40;3.70;99.90
33811;DHT22;20119;48.334;16.206;2022-11-20T18:07:07;3.70;99.90
33811;DHT22;20119;48.334;16.206;2022-11-20T18:09:34;3.70;99.90
33811;DHT22;20119;48.334;16.206;2022-11-20T18:14:36;3.70;99.90
33811;DHT22;20119;48.334;16.206;2022-11-20T18:17:04;3.80;99.90
33811;DHT22;20119;48.334;16.206;2022-11-20T18:19:34;3.90;99.90
33811;DHT22;20119;48.334;16.206;2022-11-20T18:22:02;3.90;99.90
33811;DHT22;20119;48.334;16.206;2022-11-20T18:27:05;3.90;99.90
33811;DHT22;20119;48.334;16.206;2022-11-20T18:29:32;4.00;99.90
33811;DHT22;20119;48.334;16.206;2022-11-20T18:39:41;4.00;99.90
33811;DHT22;20119;48.334;16.206;2022-11-20T18:42:11;3.90;99.90
33811;DHT22;20119;48.334;16.206;2022-11-20T18:44:55;3.90;99.90
33811;DHT22;20119;48.334;16.206;2022-11-20T18:47:26;3.90;99.90
33811;DHT22;20119;48.334;16.206;2022-11-20T18:49:55;3.90;99.90
33811;DHT22;20119;48.334;16.206;2022-11-20T18:57:35;4.00;99.90
33811;DHT22;20119;48.334;16.206;2022-11-20T19:00:03;3.90;99.90
33811;DHT22;20119;48.334;16.206;2022-11-20T19:07:41;4.00;99.90
33811;DHT22;20119;48.334;16.206;2022-11-20T19:10:09;4.10;99.90
33811;DHT22;20119;48.334;16.206;2022-11-20T19:12:37;4.10;99.90
33811;DHT22;20119;48.334;16.206;2022-11-20T19:15:05;4.10;99.90
33811;DHT22;20119;48.334;16.206;2022-11-20T19:25:18;4.10;99.90
33811;DHT22;20119;48.334;16.206;2022-11-20T19:30:22;4.30;99.90
33811;DHT22;20119;48.334;16.206;2022-11-20T19:35:24;4.20;99.90
33811;DHT22;20119;48.334;16.206;2022-11-20T19:51:11;4.30;99.90
33811;DHT22;20119;48.334;16.206;2022-11-20T19:53:38;4.40;99.90
33811;DHT22;20119;48.334;16.206;2022-11-20T19:56:06;4.40;99.90
33811;DHT22;20119;48.334;16.206;2022-11-20T19:58:33;4.40;99.90
33811;DHT22;20119;48.334;16.206;2022-11-20T20:01:05;4.40;99.90
33811;DHT22;20119;48.334;16.206;2022-11-20T20:03:34;4.40;99.90
33811;DHT22;20119;48.334;16.206;2022-11-20T20:08:36;4.40;99.90
33811;DHT22;20119;48.334;16.206;2022-11-20T20:11:10;4.50;99.90
33811;DHT22;20119;48.334;16.206;2022-11-20T20:13:37;4.50;99.90
33811;DHT22;20119;48.334;16.206;2022-11-20T20:16:08;4.60;99.90
33811;DHT22;20119;48.334;16.206;2022-11-20T20:18:37;4.70;99.90
33811;DHT22;20119;48.334;16.206;2022-11-20T20:21:04;4.70;99.90
33811;DHT22;20119;48.334;16.206;2022-11-20T20:23:32;4.70;99.90
33811;DHT22;20119;48.334;16.206;2022-11-20T20:26:00;4.70;99.90
33811;DHT22;20119;48.334;16.206;2022-11-20T20:28:27;4.70;99.90
33811;DHT22;20119;48.334;16.206;2022-11-20T20:33:30;4.70;99.90
33811;DHT22;20119;48.334;16.206;2022-11-20T20:38:33;4.60;99.90
33811;DHT22;20119;48.334;16.206;2022-11-20T20:48:43;4.70;99.90
33811;DHT22;20119;48.334;16.206;2022-11-20T20:51:10;4.70;99.90
33811;DHT22;20119;48.334;16.206;2022-11-20T20:53:39;4.70;99.90
33811;DHT22;20119;48.334;16.206;2022-11-20T21:01:16;4.70;99.90
33811;DHT22;20119;48.334;16.206;2022-11-20T21:03:43;4.70;99.90
33811;DHT22;20119;48.334;16.206;2022-11-20T21:06:10;4.70;99.90
33811;DHT22;20119;48.334;16.206;2022-11-20T21:08:39;4.70;99.90
33811;DHT22;20119;48.334;16.206;2022-11-20T21:11:08;4.80;99.90
33811;DHT22;20119;48.334;16.206;2022-11-20T21:13:36;4.90;99.90
33811;DHT22;20119;48.334;16.206;2022-11-20T21:29:02;4.80;99.90
33811;DHT22;20119;48.334;16.206;2022-11-20T21:34:04;4.70;99.90
33811;DHT22;20119;48.334;16.206;2022-11-20T21:36:32;4.60;99.90
33811;DHT22;20119;48.334;16.206;2022-11-20T21:38:59;4.60;99.90
33811;DHT22;20119;48.334;16.206;2022-11-20T21:41:28;4.50;99.90
33811;DHT22;20119;48.334;16.206;2022-11-20T21:43:56;4.40;99.90
33811;DHT22;20119;48.334;16.206;2022-11-20T21:46:25;4.30;99.90
33811;DHT22;20119;48.334;16.206;2022-11-20T21:48:52;4.20;99.90
33811;DHT22;20119;48.334;16.206;2022-11-20T21:53:55;4.10;99.90
33811;DHT22;20119;48.334;16.206;2022-11-20T21:56:24;4.00;99.90
33811;DHT22;20119;48.334;16.206;2022-11-20T21:58:51;4.00;99.90
33811;DHT22;20119;48.334;16.206;2022-11-20T22:01:21;3.90;99.90
33811;DHT22;20119;48.334;16.206;2022-11-20T22:14:11;3.90;99.90
33811;DHT22;20119;48.334;16.206;2022-11-20T22:19:22;4.00;99.90
33811;DHT22;20119;48.334;16.206;2022-11-20T22:21:49;4.00;99.90
33811;DHT22;20119;48.334;16.206;2022-11-20T22:24:17;4.10;99.90
33811;DHT22;20119;48.334;16.206;2022-11-20T22:26:45;4.30;99.90
33811;DHT22;20119;48.334;16.206;2022-11-20T22:29:15;4.30;99.90
33811;DHT22;20119;48.334;16.206;2022-11-20T22:34:14;4.30;99.90
33811;DHT22;20119;48.334;16.206;2022-11-20T22:36:41;4.30;99.90
33811;DHT22;20119;48.334;16.206;2022-11-20T22:46:54;4.20;99.90
33811;DHT22;20119;48.334;16.206;2022-11-20T22:54:32;4.00;99.90
33811;DHT22;20119;48.334;16.206;2022-11-20T22:56:59;3.90;99.90
33811;DHT22;20119;48.334;16.206;2022-11-20T23:04:38;3.90;99.90
33811;DHT22;20119;48.334;16.206;2022-11-20T23:07:05;3.80;99.90
33811;DHT22;20119;48.334;16.206;2022-11-20T23:09:32;3.70;99.90
33811;DHT22;20119;48.334;16.206;2022-11-20T23:11:58;3.70;99.90
33811;DHT22;20119;48.334;16.206;2022-11-20T23:14:25;3.70;99.90
33811;DHT22;20119;48.334;16.206;2022-11-20T23:16:52;3.70;99.90
33811;DHT22;20119;48.334;16.206;2022-11-20T23:19:19;3.80;99.90
33811;DHT22;20119;48.334;16.206;2022-11-20T23:24:23;3.80;99.90
33811;DHT22;20119;48.334;16.206;2022-11-20T23:37:20;3.60;99.90
33811;DHT22;20119;48.334;16.206;2022-11-20T23:42:23;3.60;99.90
33811;DHT22;20119;48.334;16.206;2022-11-20T23:44:50;3.50;99.90
33811;DHT22;20119;48.334;16.206;2022-11-20T23:47:17;3.50;99.90
33811;DHT22;20119;48.334;16.206;2022-11-20T23:49:44;3.50;99.90
33811;DHT22;20119;48.334;16.206;2022-11-20T23:54:46;3.50;99.90
33811;DHT22;20119;48.334;16.206;2022-11-20T23:59:50;3.40;99.90
